Terminal Aerodrome Forecast
Issued by NWS Louisville, KY

Home | Current Version | Previous Version | Text Only | Print | Product List | Glossary On
Versions: 1 2 3 4 5 6 7 8 9 10 11 12 13 14 15 16 17
000
FTUS43 KLMK 041700
TAFBWG
TAF
KBWG 041723Z 0418/0518 22010G15KT P6SM FEW070 SCT150
     FM050100 19003KT P6SM SCT250
     FM051000 VRB03KT 6SM BR SCT250
     FM051300 22008KT P6SM SCT060 SCT250=

USA.gov is the U.S. government's official web portal to all federal, state and local government web resources and services.